TimeCST,TemperatureF,Dew PointF,Humidity,Sea Level PressureIn,VisibilityMPH,Wind Direction,Wind SpeedMPH,Gust SpeedMPH,PrecipitationIn,Events,Conditions,WindDirDegrees,DateUTC
12:54 AM,63.0,61.0,93,30.04,5.0,South,6.9,-,0.01,Rain,Light Rain,170,2013-01-11 06:54:00
1:40 AM,62.6,60.8,94,30.05,3.0,South,8.1,-,0.01,Rain,Light Rain,170,2013-01-11 07:40:00
1:54 AM,62.1,61.0,96,30.05,3.0,South,6.9,-,0.01,,Overcast,180,2013-01-11 07:54:00
2:54 AM,63.0,61.0,93,30.03,8.0,South,8.1,-,N/A,,Overcast,170,2013-01-11 08:54:00
3:22 AM,62.6,62.6,100,30.03,6.0,South,9.2,-,N/A,,Overcast,170,2013-01-11 09:22:00
3:54 AM,63.0,62.1,97,30.02,9.0,South,9.2,-,N/A,,Overcast,170,2013-01-11 09:54:00
4:54 AM,63.0,62.1,97,30.03,3.0,SW,3.5,-,0.01,Rain,Light Rain,220,2013-01-11 10:54:00
5:35 AM,62.6,60.8,94,30.04,10.0,WSW,5.8,-,0.01,Rain,Light Rain,250,2013-01-11 11:35:00
5:54 AM,62.6,60.8,94,30.05,6.0,WSW,4.6,-,N/A,,Overcast,250,2013-01-11 11:54:00
6:03 AM,62.6,60.8,94,30.06,4.0,West,4.6,-,0.00,Rain,Light Rain,260,2013-01-11 12:03:00
6:24 AM,62.6,60.8,94,30.06,10.0,WNW,3.5,-,0.01,,Overcast,290,2013-01-11 12:24:00
6:54 AM,62.6,60.8,94,30.07,10.0,Calm,Calm,-,N/A,,Overcast,0,2013-01-11 12:54:00
7:32 AM,60.8,60.8,100,30.08,10.0,Calm,Calm,-,N/A,,Overcast,0,2013-01-11 13:32:00
7:54 AM,62.1,57.9,86,30.07,10.0,South,3.5,-,N/A,,Mostly Cloudy,190,2013-01-11 13:54:00
8:54 AM,63.0,59.0,87,30.09,10.0,SSE,4.6,-,N/A,,Mostly Cloudy,160,2013-01-11 14:54:00
9:54 AM,64.0,59.0,84,30.09,10.0,South,5.8,-,N/A,,Mostly Cloudy,170,2013-01-11 15:54:00
10:54 AM,64.9,60.1,84,30.08,10.0,South,6.9,-,N/A,,Mostly Cloudy,170,2013-01-11 16:54:00
11:54 AM,64.9,60.1,84,30.06,10.0,SSE,5.8,-,0.00,,Overcast,160,2013-01-11 17:54:00
12:54 PM,64.9,62.1,90,30.04,10.0,SSE,6.9,-,N/A,,Mostly Cloudy,150,2013-01-11 18:54:00
1:10 PM,64.4,60.8,88,30.04,10.0,SSE,10.4,-,N/A,,Overcast,150,2013-01-11 19:10:00
1:54 PM,64.9,62.1,90,30.03,10.0,South,10.4,-,0.00,,Mostly Cloudy,170,2013-01-11 19:54:00
2:54 PM,66.9,63.0,87,30.01,10.0,South,9.2,-,N/A,,Overcast,170,2013-01-11 20:54:00
3:35 PM,66.2,62.6,88,30.01,10.0,SSE,6.9,-,N/A,,Overcast,160,2013-01-11 21:35:00
3:54 PM,66.9,63.0,87,30.00,10.0,SSE,5.8,-,N/A,,Overcast,150,2013-01-11 21:54:00
4:54 PM,66.9,64.0,90,30.00,10.0,SE,3.5,-,N/A,,Overcast,140,2013-01-11 22:54:00
5:03 PM,66.2,64.4,94,30.01,10.0,SSE,4.6,-,N/A,,Overcast,150,2013-01-11 23:03:00
5:23 PM,66.2,64.4,94,30.01,10.0,South,3.5,-,N/A,,Overcast,170,2013-01-11 23:23:00
5:54 PM,66.9,64.0,90,29.99,10.0,SSE,4.6,-,N/A,,Overcast,150,2013-01-11 23:54:00
6:04 PM,66.2,64.4,94,30.00,10.0,SSE,5.8,-,N/A,,Mostly Cloudy,150,2013-01-12 00:04:00
6:15 PM,66.2,64.4,94,30.01,10.0,SSE,5.8,-,N/A,,Mostly Cloudy,150,2013-01-12 00:15:00
6:47 PM,66.2,64.4,94,30.02,10.0,SSE,5.8,-,0.00,,Mostly Cloudy,160,2013-01-12 00:47:00
6:54 PM,66.9,64.9,93,30.01,10.0,SSE,5.8,-,0.00,,Overcast,160,2013-01-12 00:54:00
7:54 PM,66.9,64.9,93,30.01,10.0,South,5.8,-,N/A,,Overcast,170,2013-01-12 01:54:00
8:54 PM,68.0,66.0,93,30.01,10.0,South,9.2,-,N/A,,Overcast,170,2013-01-12 02:54:00
9:54 PM,69.1,66.0,90,30.00,10.0,SSE,10.4,-,N/A,,Overcast,160,2013-01-12 03:54:00
10:17 PM,69.8,66.2,88,30.01,10.0,South,13.8,-,N/A,,Overcast,170,2013-01-12 04:17:00
10:54 PM,69.1,66.0,90,30.01,10.0,South,9.2,-,N/A,,Overcast,170,2013-01-12 04:54:00
11:54 PM,69.1,66.0,90,29.99,10.0,SSE,9.2,-,N/A,,Overcast,160,2013-01-12 05:54:00